sensor_id;sensor_type;location;lat;lon;timestamp;temperature;humidity
15819;DHT22;8010;53.986;12.106;2023-03-01T00:01:50;0.20;99.90
15819;DHT22;8010;53.986;12.106;2023-03-01T00:04:15;0.20;99.90
15819;DHT22;8010;53.986;12.106;2023-03-01T00:06:43;0.20;99.90
15819;DHT22;8010;53.986;12.106;2023-03-01T00:09:12;0.20;99.90
15819;DHT22;8010;53.986;12.106;2023-03-01T00:11:38;0.20;99.90
15819;DHT22;8010;53.986;12.106;2023-03-01T00:14:03;0.20;99.90
15819;DHT22;8010;53.986;12.106;2023-03-01T00:16:42;0.30;99.90
15819;DHT22;8010;53.986;12.106;2023-03-01T00:19:11;0.30;99.90
15819;DHT22;8010;53.986;12.106;2023-03-01T00:21:37;0.20;99.90
15819;DHT22;8010;53.986;12.106;2023-03-01T00:24:03;0.20;99.90
15819;DHT22;8010;53.986;12.106;2023-03-01T00:26:29;0.20;99.90
15819;DHT22;8010;53.986;12.106;2023-03-01T00:28:57;0.20;99.90
15819;DHT22;8010;53.986;12.106;2023-03-01T00:31:25;0.20;99.90
15819;DHT22;8010;53.986;12.106;2023-03-01T00:33:55;0.20;99.90
15819;DHT22;8010;53.986;12.106;2023-03-01T00:36:23;0.20;99.90
15819;DHT22;8010;53.986;12.106;2023-03-01T00:38:49;0.20;99.90
15819;DHT22;8010;53.986;12.106;2023-03-01T00:41:16;0.20;99.90
15819;DHT22;8010;53.986;12.106;2023-03-01T00:43:43;0.20;99.90
15819;DHT22;8010;53.986;12.106;2023-03-01T00:46:17;0.20;99.90
15819;DHT22;8010;53.986;12.106;2023-03-01T00:48:44;0.20;99.90
15819;DHT22;8010;53.986;12.106;2023-03-01T00:51:20;0.30;99.90
15819;DHT22;8010;53.986;12.106;2023-03-01T00:53:46;0.30;99.90
15819;DHT22;8010;53.986;12.106;2023-03-01T00:56:14;0.40;99.90
15819;DHT22;8010;53.986;12.106;2023-03-01T00:58:40;0.40;99.90
15819;DHT22;8010;53.986;12.106;2023-03-01T01:04:04;0.40;99.90
15819;DHT22;8010;53.986;12.106;2023-03-01T01:06:32;0.40;99.90
15819;DHT22;8010;53.986;12.106;2023-03-01T01:08:59;0.30;99.90
15819;DHT22;8010;53.986;12.106;2023-03-01T01:11:26;0.20;99.90
15819;DHT22;8010;53.986;12.106;2023-03-01T01:13:52;0.20;99.90
15819;DHT22;8010;53.986;12.106;2023-03-01T01:16:20;0.10;99.90
15819;DHT22;8010;53.986;12.106;2023-03-01T01:18:45;0.00;99.90
15819;DHT22;8010;53.986;12.106;2023-03-01T01:21:14;0.00;99.90
15819;DHT22;8010;53.986;12.106;2023-03-01T01:23:40;-0.20;99.90
15819;DHT22;8010;53.986;12.106;2023-03-01T01:26:08;-0.20;99.90
15819;DHT22;8010;53.986;12.106;2023-03-01T01:28:34;-0.20;99.90
15819;DHT22;8010;53.986;12.106;2023-03-01T01:30:59;-0.20;99.90
15819;DHT22;8010;53.986;12.106;2023-03-01T01:33:25;-0.20;99.90
15819;DHT22;8010;53.986;12.106;2023-03-01T01:35:51;-0.10;99.90
15819;DHT22;8010;53.986;12.106;2023-03-01T01:38:16;-0.10;99.90
15819;DHT22;8010;53.986;12.106;2023-03-01T01:40:45;0.00;99.90
15819;DHT22;8010;53.986;12.106;2023-03-01T01:43:35;0.00;99.90
15819;DHT22;8010;53.986;12.106;2023-03-01T01:48:59;0.10;99.90
15819;DHT22;8010;53.986;12.106;2023-03-01T01:51:31;0.20;99.90
15819;DHT22;8010;53.986;12.106;2023-03-01T01:54:10;0.10;99.90
15819;DHT22;8010;53.986;12.106;2023-03-01T01:56:39;0.10;99.90
15819;DHT22;8010;53.986;12.106;2023-03-01T01:59:06;0.10;99.90
15819;DHT22;8010;53.986;12.106;2023-03-01T02:01:31;0.10;99.90
15819;DHT22;8010;53.986;12.106;2023-03-01T02:03:57;0.10;99.90
15819;DHT22;8010;53.986;12.106;2023-03-01T02:06:48;0.10;99.90
15819;DHT22;8010;53.986;12.106;2023-03-01T02:09:19;0.00;99.90
15819;DHT22;8010;53.986;12.106;2023-03-01T02:11:47;0.00;99.90
15819;DHT22;8010;53.986;12.106;2023-03-01T02:14:14;0.00;99.90
15819;DHT22;8010;53.986;12.106;2023-03-01T02:16:40;0.10;99.90
15819;DHT22;8010;53.986;12.106;2023-03-01T02:19:07;0.10;99.90
15819;DHT22;8010;53.986;12.106;2023-03-01T02:21:49;0.10;99.90
15819;DHT22;8010;53.986;12.106;2023-03-01T02:24:40;0.10;99.90
15819;DHT22;8010;53.986;12.106;2023-03-01T02:27:09;0.20;99.90
15819;DHT22;8010;53.986;12.106;2023-03-01T02:29:35;0.10;99.90
15819;DHT22;8010;53.986;12.106;2023-03-01T02:32:02;0.10;99.90
15819;DHT22;8010;53.986;12.106;2023-03-01T02:34:30;0.00;99.90
15819;DHT22;8010;53.986;12.106;2023-03-01T02:37:05;-0.10;99.90
15819;DHT22;8010;53.986;12.106;2023-03-01T02:39:58;-0.20;99.90
15819;DHT22;8010;53.986;12.106;2023-03-01T02:42:30;-0.30;99.90
15819;DHT22;8010;53.986;12.106;2023-03-01T02:44:57;-0.40;99.90
15819;DHT22;8010;53.986;12.106;2023-03-01T02:47:22;-0.20;99.90
15819;DHT22;8010;53.986;12.106;2023-03-01T02:49:48;-0.40;99.90
15819;DHT22;8010;53.986;12.106;2023-03-01T02:52:47;-0.40;99.90
15819;DHT22;8010;53.986;12.106;2023-03-01T02:55:16;-0.40;99.90
15819;DHT22;8010;53.986;12.106;2023-03-01T02:57:44;-0.40;99.90
15819;DHT22;8010;53.986;12.106;2023-03-01T03:00:17;-0.40;99.90
15819;DHT22;8010;53.986;12.106;2023-03-01T03:02:49;-0.50;99.90
15819;DHT22;8010;53.986;12.106;2023-03-01T03:05:20;-0.50;99.90
15819;DHT22;8010;53.986;12.106;2023-03-01T03:07:47;-0.50;99.90
15819;DHT22;8010;53.986;12.106;2023-03-01T03:10:17;-0.50;99.90
15819;DHT22;8010;53.986;12.106;2023-03-01T03:12:52;-0.40;99.90
15819;DHT22;8010;53.986;12.106;2023-03-01T03:15:18;-0.40;99.90
15819;DHT22;8010;53.986;12.106;2023-03-01T03:17:44;-0.50;99.90
15819;DHT22;8010;53.986;12.106;2023-03-01T03:20:12;-0.50;99.90
15819;DHT22;8010;53.986;12.106;2023-03-01T03:22:41;-0.60;99.90
15819;DHT22;8010;53.986;12.106;2023-03-01T03:25:08;0.50;99.90
15819;DHT22;8010;53.986;12.106;2023-03-01T03:27:38;-0.60;99.90
15819;DHT22;8010;53.986;12.106;2023-03-01T03:30:08;-0.50;99.90
15819;DHT22;8010;53.986;12.106;2023-03-01T03:32:38;-0.50;99.90
15819;DHT22;8010;53.986;12.106;2023-03-01T03:35:05;-0.50;99.90
15819;DHT22;8010;53.986;12.106;2023-03-01T03:37:36;-0.50;99.90
15819;DHT22;8010;53.986;12.106;2023-03-01T03:40:21;-0.40;99.90
15819;DHT22;8010;53.986;12.106;2023-03-01T03:42:46;-0.40;99.90
15819;DHT22;8010;53.986;12.106;2023-03-01T03:45:13;-0.30;99.90
15819;DHT22;8010;53.986;12.106;2023-03-01T03:47:39;-0.30;99.90
15819;DHT22;8010;53.986;12.106;2023-03-01T03:50:05;-0.40;99.90
15819;DHT22;8010;53.986;12.106;2023-03-01T03:52:30;-0.40;99.90
15819;DHT22;8010;53.986;12.106;2023-03-01T03:54:56;-0.50;99.90
15819;DHT22;8010;53.986;12.106;2023-03-01T03:57:21;-0.50;99.90
15819;DHT22;8010;53.986;12.106;2023-03-01T03:59:47;-0.50;99.90
15819;DHT22;8010;53.986;12.106;2023-03-01T04:02:12;-0.50;99.90
15819;DHT22;8010;53.986;12.106;2023-03-01T04:04:38;-0.50;99.90
15819;DHT22;8010;53.986;12.106;2023-03-01T04:07:03;-0.50;99.90
15819;DHT22;8010;53.986;12.106;2023-03-01T04:09:29;-0.40;99.90
15819;DHT22;8010;53.986;12.106;2023-03-01T04:11:55;-0.50;99.90
15819;DHT22;8010;53.986;12.106;2023-03-01T04:14:21;-0.50;99.90
15819;DHT22;8010;53.986;12.106;2023-03-01T04:16:46;-0.50;99.90
15819;DHT22;8010;53.986;12.106;2023-03-01T04:19:12;-0.50;99.90
15819;DHT22;8010;53.986;12.106;2023-03-01T04:21:37;-0.50;99.90
15819;DHT22;8010;53.986;12.106;2023-03-01T04:24:04;-0.60;99.90
15819;DHT22;8010;53.986;12.106;2023-03-01T04:26:29;-0.60;99.90
15819;DHT22;8010;53.986;12.106;2023-03-01T04:28:55;-0.70;99.90
15819;DHT22;8010;53.986;12.106;2023-03-01T04:31:21;-0.70;99.90
15819;DHT22;8010;53.986;12.106;2023-03-01T04:36:13;-0.60;99.90
15819;DHT22;8010;53.986;12.106;2023-03-01T04:38:39;-0.60;99.90
15819;DHT22;8010;53.986;12.106;2023-03-01T04:41:07;-0.60;99.90
15819;DHT22;8010;53.986;12.106;2023-03-01T04:43:33;-0.60;99.90
15819;DHT22;8010;53.986;12.106;2023-03-01T04:46:06;-0.60;99.90
15819;DHT22;8010;53.986;12.106;2023-03-01T04:48:35;-0.60;99.90
15819;DHT22;8010;53.986;12.106;2023-03-01T04:51:01;-0.60;99.90
15819;DHT22;8010;53.986;12.106;2023-03-01T04:53:27;-0.70;99.90
15819;DHT22;8010;53.986;12.106;2023-03-01T04:55:54;-0.70;99.90
15819;DHT22;8010;53.986;12.106;2023-03-01T04:58:24;-0.80;99.90
15819;DHT22;8010;53.986;12.106;2023-03-01T05:00:50;-0.90;99.90
15819;DHT22;8010;53.986;12.106;2023-03-01T05:03:15;-0.90;99.90
15819;DHT22;8010;53.986;12.106;2023-03-01T05:05:44;-0.90;99.90
15819;DHT22;8010;53.986;12.106;2023-03-01T05:08:11;-0.90;99.90
15819;DHT22;8010;53.986;12.106;2023-03-01T05:10:45;-0.90;99.90
15819;DHT22;8010;53.986;12.106;2023-03-01T05:13:12;-0.80;99.90
15819;DHT22;8010;53.986;12.106;2023-03-01T05:15:39;-0.80;99.90
15819;DHT22;8010;53.986;12.106;2023-03-01T05:18:04;-0.80;99.90
15819;DHT22;8010;53.986;12.106;2023-03-01T05:20:37;-0.80;99.90
15819;DHT22;8010;53.986;12.106;2023-03-01T05:23:03;-0.80;99.90
15819;DHT22;8010;53.986;12.106;2023-03-01T05:25:31;-0.80;99.90
15819;DHT22;8010;53.986;12.106;2023-03-01T05:28:02;-0.80;99.90
15819;DHT22;8010;53.986;12.106;2023-03-01T05:30:31;-0.80;99.90
15819;DHT22;8010;53.986;12.106;2023-03-01T05:32:56;-0.80;99.90
15819;DHT22;8010;53.986;12.106;2023-03-01T05:35:22;-0.80;99.90
15819;DHT22;8010;53.986;12.106;2023-03-01T05:37:49;-0.50;99.90
15819;DHT22;8010;53.986;12.106;2023-03-01T05:40:17;-0.20;99.90
15819;DHT22;8010;53.986;12.106;2023-03-01T05:42:44;-0.70;99.90
15819;DHT22;8010;53.986;12.106;2023-03-01T05:45:10;-0.60;99.90
15819;DHT22;8010;53.986;12.106;2023-03-01T05:47:38;-0.60;99.90
15819;DHT22;8010;53.986;12.106;2023-03-01T05:50:04;-0.60;99.90
15819;DHT22;8010;53.986;12.106;2023-03-01T05:52:29;-0.70;99.90
15819;DHT22;8010;53.986;12.106;2023-03-01T05:54:55;-0.70;99.90
15819;DHT22;8010;53.986;12.106;2023-03-01T05:57:20;-0.80;99.90
15819;DHT22;8010;53.986;12.106;2023-03-01T05:59:46;-0.80;99.90
15819;DHT22;8010;53.986;12.106;2023-03-01T06:02:11;-0.80;99.90
15819;DHT22;8010;53.986;12.106;2023-03-01T06:04:37;-0.80;99.90
15819;DHT22;8010;53.986;12.106;2023-03-01T06:07:02;-0.70;99.90
15819;DHT22;8010;53.986;12.106;2023-03-01T06:09:28;-0.60;99.90
15819;DHT22;8010;53.986;12.106;2023-03-01T06:11:53;-0.70;99.90
15819;DHT22;8010;53.986;12.106;2023-03-01T06:14:19;-0.70;99.90
15819;DHT22;8010;53.986;12.106;2023-03-01T06:16:46;-0.70;99.90
15819;DHT22;8010;53.986;12.106;2023-03-01T06:19:11;-0.20;99.90
15819;DHT22;8010;53.986;12.106;2023-03-01T06:21:37;-0.60;99.90
15819;DHT22;8010;53.986;12.106;2023-03-01T06:24:02;-0.60;99.90
15819;DHT22;8010;53.986;12.106;2023-03-01T06:26:28;-0.50;99.90
15819;DHT22;8010;53.986;12.106;2023-03-01T06:28:53;-0.50;99.90
15819;DHT22;8010;53.986;12.106;2023-03-01T06:31:19;-0.20;99.90
15819;DHT22;8010;53.986;12.106;2023-03-01T06:33:44;-0.40;99.90
15819;DHT22;8010;53.986;12.106;2023-03-01T06:36:10;-0.40;99.90
15819;DHT22;8010;53.986;12.106;2023-03-01T06:38:36;-0.30;99.90
15819;DHT22;8010;53.986;12.106;2023-03-01T06:41:01;-0.30;99.90
15819;DHT22;8010;53.986;12.106;2023-03-01T06:43:27;0.80;99.90
15819;DHT22;8010;53.986;12.106;2023-03-01T06:45:52;1.30;99.90
15819;DHT22;8010;53.986;12.106;2023-03-01T06:48:18;-0.10;99.90
15819;DHT22;8010;53.986;12.106;2023-03-01T06:50:43;0.10;99.90
15819;DHT22;8010;53.986;12.106;2023-03-01T06:53:09;1.50;99.90
15819;DHT22;8010;53.986;12.106;2023-03-01T06:55:34;0.00;99.90
15819;DHT22;8010;53.986;12.106;2023-03-01T06:58:01;1.40;99.90
15819;DHT22;8010;53.986;12.106;2023-03-01T07:00:28;0.00;99.90
15819;DHT22;8010;53.986;12.106;2023-03-01T07:02:53;0.10;99.90
15819;DHT22;8010;53.986;12.106;2023-03-01T07:05:19;1.90;99.90
15819;DHT22;8010;53.986;12.106;2023-03-01T07:07:45;0.10;99.90
15819;DHT22;8010;53.986;12.106;2023-03-01T07:10:10;1.40;99.90
15819;DHT22;8010;53.986;12.106;2023-03-01T07:12:36;1.20;99.90
15819;DHT22;8010;53.986;12.106;2023-03-01T07:15:02;0.20;99.90
15819;DHT22;8010;53.986;12.106;2023-03-01T07:17:27;0.30;99.90
15819;DHT22;8010;53.986;12.106;2023-03-01T07:19:53;2.00;99.90
15819;DHT22;8010;53.986;12.106;2023-03-01T07:22:19;0.80;99.90
15819;DHT22;8010;53.986;12.106;2023-03-01T07:24:44;1.90;99.90
15819;DHT22;8010;53.986;12.106;2023-03-01T07:27:11;0.60;99.90
15819;DHT22;8010;53.986;12.106;2023-03-01T07:29:37;1.50;99.90
15819;DHT22;8010;53.986;12.106;2023-03-01T07:32:04;2.50;99.90
15819;DHT22;8010;53.986;12.106;2023-03-01T07:34:29;0.70;99.90
15819;DHT22;8010;53.986;12.106;2023-03-01T07:36:55;2.30;99.90
15819;DHT22;8010;53.986;12.106;2023-03-01T07:39:21;2.00;99.90
15819;DHT22;8010;53.986;12.106;2023-03-01T07:41:48;0.90;99.90
15819;DHT22;8010;53.986;12.106;2023-03-01T07:44:14;1.00;99.90
15819;DHT22;8010;53.986;12.106;2023-03-01T07:46:40;1.10;99.90
15819;DHT22;8010;53.986;12.106;2023-03-01T07:49:06;1.20;99.90
15819;DHT22;8010;53.986;12.106;2023-03-01T07:51:31;1.20;99.90
15819;DHT22;8010;53.986;12.106;2023-03-01T07:53:57;1.30;99.90
15819;DHT22;8010;53.986;12.106;2023-03-01T07:56:22;1.40;99.90
15819;DHT22;8010;53.986;12.106;2023-03-01T07:58:48;1.40;99.90
15819;DHT22;8010;53.986;12.106;2023-03-01T08:01:16;1.50;99.90
15819;DHT22;8010;53.986;12.106;2023-03-01T08:03:42;1.60;99.90
15819;DHT22;8010;53.986;12.106;2023-03-01T08:06:09;1.70;99.90
15819;DHT22;8010;53.986;12.106;2023-03-01T08:08:36;1.80;99.90
15819;DHT22;8010;53.986;12.106;2023-03-01T08:11:03;1.90;99.90
15819;DHT22;8010;53.986;12.106;2023-03-01T08:13:29;2.20;99.90
15819;DHT22;8010;53.986;12.106;2023-03-01T08:16:01;2.10;99.90
15819;DHT22;8010;53.986;12.106;2023-03-01T08:18:27;2.10;99.90
15819;DHT22;8010;53.986;12.106;2023-03-01T08:20:52;2.20;99.90
15819;DHT22;8010;53.986;12.106;2023-03-01T08:23:18;2.30;99.90
15819;DHT22;8010;53.986;12.106;2023-03-01T08:25:44;2.40;99.90
15819;DHT22;8010;53.986;12.106;2023-03-01T08:28:09;2.50;99.90
15819;DHT22;8010;53.986;12.106;2023-03-01T08:30:35;2.60;99.90
15819;DHT22;8010;53.986;12.106;2023-03-01T08:33:00;2.70;99.90
15819;DHT22;8010;53.986;12.106;2023-03-01T08:35:26;2.90;99.90
15819;DHT22;8010;53.986;12.106;2023-03-01T08:37:51;3.00;99.90
15819;DHT22;8010;53.986;12.106;2023-03-01T08:40:17;3.10;99.90
15819;DHT22;8010;53.986;12.106;2023-03-01T08:42:43;3.10;99.90
15819;DHT22;8010;53.986;12.106;2023-03-01T08:45:09;3.00;99.90
15819;DHT22;8010;53.986;12.106;2023-03-01T08:47:36;3.00;99.90
15819;DHT22;8010;53.986;12.106;2023-03-01T08:50:01;2.90;99.90
15819;DHT22;8010;53.986;12.106;2023-03-01T08:52:27;2.80;99.90
15819;DHT22;8010;53.986;12.106;2023-03-01T08:54:53;2.60;99.90
15819;DHT22;8010;53.986;12.106;2023-03-01T08:57:18;2.50;99.90
15819;DHT22;8010;53.986;12.106;2023-03-01T08:59:44;2.50;99.90
15819;DHT22;8010;53.986;12.106;2023-03-01T09:02:13;2.50;99.90
15819;DHT22;8010;53.986;12.106;2023-03-01T09:04:40;2.40;99.90
15819;DHT22;8010;53.986;12.106;2023-03-01T09:07:05;2.40;99.90
15819;DHT22;8010;53.986;12.106;2023-03-01T09:09:31;2.40;99.90
15819;DHT22;8010;53.986;12.106;2023-03-01T09:11:57;2.50;99.90
15819;DHT22;8010;53.986;12.106;2023-03-01T09:14:22;2.50;99.90
15819;DHT22;8010;53.986;12.106;2023-03-01T09:16:48;2.70;99.90
15819;DHT22;8010;53.986;12.106;2023-03-01T09:19:13;2.70;99.90
15819;DHT22;8010;53.986;12.106;2023-03-01T09:21:39;2.80;99.90
15819;DHT22;8010;53.986;12.106;2023-03-01T09:24:15;2.80;99.90
15819;DHT22;8010;53.986;12.106;2023-03-01T09:26:41;2.90;99.90
15819;DHT22;8010;53.986;12.106;2023-03-01T09:29:06;3.00;99.90
15819;DHT22;8010;53.986;12.106;2023-03-01T09:31:34;3.10;99.90
15819;DHT22;8010;53.986;12.106;2023-03-01T09:34:00;3.20;99.90
15819;DHT22;8010;53.986;12.106;2023-03-01T09:36:26;3.30;99.90
15819;DHT22;8010;53.986;12.106;2023-03-01T09:38:51;3.30;99.90
15819;DHT22;8010;53.986;12.106;2023-03-01T09:47:14;3.40;99.90
15819;DHT22;8010;53.986;12.106;2023-03-01T09:49:43;3.40;99.90
15819;DHT22;8010;53.986;12.106;2023-03-01T09:52:43;3.40;99.90
15819;DHT22;8010;53.986;12.106;2023-03-01T09:55:17;3.50;99.90
15819;DHT22;8010;53.986;12.106;2023-03-01T09:57:45;3.50;99.90
15819;DHT22;8010;53.986;12.106;2023-03-01T10:03:06;3.60;99.90
15819;DHT22;8010;53.986;12.106;2023-03-01T10:05:42;3.60;99.90
15819;DHT22;8010;53.986;12.106;2023-03-01T10:10:55;3.70;99.90
15819;DHT22;8010;53.986;12.106;2023-03-01T10:13:26;3.70;99.90
15819;DHT22;8010;53.986;12.106;2023-03-01T10:16:03;3.70;99.90
15819;DHT22;8010;53.986;12.106;2023-03-01T10:18:32;3.70;99.90
15819;DHT22;8010;53.986;12.106;2023-03-01T10:21:00;3.70;99.90
15819;DHT22;8010;53.986;12.106;2023-03-01T10:23:29;3.80;99.90
15819;DHT22;8010;53.986;12.106;2023-03-01T10:26:12;3.80;99.90
15819;DHT22;8010;53.986;12.106;2023-03-01T10:29:06;3.80;99.90
15819;DHT22;8010;53.986;12.106;2023-03-01T10:31:46;3.80;99.90
15819;DHT22;8010;53.986;12.106;2023-03-01T10:34:21;3.90;99.90
15819;DHT22;8010;53.986;12.106;2023-03-01T10:36:50;3.90;99.90
15819;DHT22;8010;53.986;12.106;2023-03-01T10:39:24;4.00;99.90
15819;DHT22;8010;53.986;12.106;2023-03-01T10:42:20;4.00;99.90
15819;DHT22;8010;53.986;12.106;2023-03-01T10:44:48;4.00;99.90
15819;DHT22;8010;53.986;12.106;2023-03-01T10:47:23;4.00;99.90
15819;DHT22;8010;53.986;12.106;2023-03-01T10:50:23;4.00;99.90
15819;DHT22;8010;53.986;12.106;2023-03-01T10:53:03;4.10;99.90
15819;DHT22;8010;53.986;12.106;2023-03-01T10:55:39;4.10;99.90
15819;DHT22;8010;53.986;12.106;2023-03-01T10:58:19;4.20;99.90
15819;DHT22;8010;53.986;12.106;2023-03-01T11:00:50;4.20;99.90
15819;DHT22;8010;53.986;12.106;2023-03-01T11:03:21;4.20;99.90
15819;DHT22;8010;53.986;12.106;2023-03-01T11:08:38;4.40;99.90
15819;DHT22;8010;53.986;12.106;2023-03-01T11:16:40;4.50;99.90
15819;DHT22;8010;53.986;12.106;2023-03-01T11:21:38;4.50;99.90
15819;DHT22;8010;53.986;12.106;2023-03-01T11:24:10;4.50;99.90
15819;DHT22;8010;53.986;12.106;2023-03-01T11:26:43;4.50;99.90
15819;DHT22;8010;53.986;12.106;2023-03-01T11:29:29;4.60;99.90
15819;DHT22;8010;53.986;12.106;2023-03-01T11:32:00;4.60;99.90
15819;DHT22;8010;53.986;12.106;2023-03-01T11:34:53;4.70;99.90
15819;DHT22;8010;53.986;12.106;2023-03-01T11:37:38;4.80;99.90
15819;DHT22;8010;53.986;12.106;2023-03-01T11:40:25;4.90;99.90
15819;DHT22;8010;53.986;12.106;2023-03-01T11:43:26;4.90;99.90
15819;DHT22;8010;53.986;12.106;2023-03-01T11:46:11;5.00;99.90
15819;DHT22;8010;53.986;12.106;2023-03-01T11:48:57;5.10;99.90
15819;DHT22;8010;53.986;12.106;2023-03-01T11:57:00;5.40;99.90
15819;DHT22;8010;53.986;12.106;2023-03-01T12:07:56;5.80;99.90
15819;DHT22;8010;53.986;12.106;2023-03-01T12:10:30;6.00;99.90
15819;DHT22;8010;53.986;12.106;2023-03-01T12:13:19;6.10;99.90
15819;DHT22;8010;53.986;12.106;2023-03-01T12:21:29;6.40;99.90
15819;DHT22;8010;53.986;12.106;2023-03-01T12:27:14;6.60;99.90
15819;DHT22;8010;53.986;12.106;2023-03-01T12:29:57;6.60;99.90
15819;DHT22;8010;53.986;12.106;2023-03-01T12:32:43;6.60;99.90
15819;DHT22;8010;53.986;12.106;2023-03-01T12:35:25;6.60;99.90
15819;DHT22;8010;53.986;12.106;2023-03-01T12:38:29;6.60;99.90
15819;DHT22;8010;53.986;12.106;2023-03-01T12:44:52;6.60;99.90
15819;DHT22;8010;53.986;12.106;2023-03-01T12:50:20;6.50;99.90
15819;DHT22;8010;53.986;12.106;2023-03-01T12:52:52;6.60;99.90
15819;DHT22;8010;53.986;12.106;2023-03-01T12:55:33;6.70;99.90
15819;DHT22;8010;53.986;12.106;2023-03-01T12:58:27;6.70;99.90
15819;DHT22;8010;53.986;12.106;2023-03-01T13:12:45;6.90;99.90
15819;DHT22;8010;53.986;12.106;2023-03-01T13:17:54;6.90;99.90
15819;DHT22;8010;53.986;12.106;2023-03-01T13:30:57;6.80;99.90
15819;DHT22;8010;53.986;12.106;2023-03-01T13:35:48;6.80;99.90
15819;DHT22;8010;53.986;12.106;2023-03-01T13:41:08;6.90;99.90
15819;DHT22;8010;53.986;12.106;2023-03-01T13:43:38;6.90;99.90
15819;DHT22;8010;53.986;12.106;2023-03-01T13:46:19;6.90;99.90
15819;DHT22;8010;53.986;12.106;2023-03-01T13:48:49;7.00;99.90
15819;DHT22;8010;53.986;12.106;2023-03-01T13:51:15;6.80;99.90
15819;DHT22;8010;53.986;12.106;2023-03-01T13:53:45;6.80;99.90
15819;DHT22;8010;53.986;12.106;2023-03-01T13:56:29;6.70;99.90
15819;DHT22;8010;53.986;12.106;2023-03-01T13:59:02;6.70;99.90
15819;DHT22;8010;53.986;12.106;2023-03-01T14:01:38;6.70;99.90
15819;DHT22;8010;53.986;12.106;2023-03-01T14:04:22;6.80;99.90
15819;DHT22;8010;53.986;12.106;2023-03-01T14:06:48;6.70;99.90
15819;DHT22;8010;53.986;12.106;2023-03-01T14:09:20;6.60;99.90
15819;DHT22;8010;53.986;12.106;2023-03-01T14:14:43;6.30;99.90
15819;DHT22;8010;53.986;12.106;2023-03-01T14:19:59;6.10;99.90
15819;DHT22;8010;53.986;12.106;2023-03-01T14:22:32;6.00;99.90
15819;DHT22;8010;53.986;12.106;2023-03-01T14:25:02;5.80;99.90
15819;DHT22;8010;53.986;12.106;2023-03-01T14:27:35;5.70;99.90
15819;DHT22;8010;53.986;12.106;2023-03-01T14:30:10;5.60;99.90
15819;DHT22;8010;53.986;12.106;2023-03-01T14:32:37;5.60;99.90
15819;DHT22;8010;53.986;12.106;2023-03-01T14:35:20;5.60;99.90
15819;DHT22;8010;53.986;12.106;2023-03-01T14:37:45;5.60;99.90
15819;DHT22;8010;53.986;12.106;2023-03-01T14:40:21;5.60;99.90
15819;DHT22;8010;53.986;12.106;2023-03-01T14:42:47;5.60;99.90
15819;DHT22;8010;53.986;12.106;2023-03-01T14:45:13;5.50;99.90
15819;DHT22;8010;53.986;12.106;2023-03-01T14:47:39;5.50;99.90
15819;DHT22;8010;53.986;12.106;2023-03-01T14:52:43;5.50;99.90
15819;DHT22;8010;53.986;12.106;2023-03-01T14:55:24;5.50;99.90
15819;DHT22;8010;53.986;12.106;2023-03-01T14:57:51;5.50;99.90
15819;DHT22;8010;53.986;12.106;2023-03-01T15:00:23;5.50;99.90
15819;DHT22;8010;53.986;12.106;2023-03-01T15:02:52;5.40;99.90
15819;DHT22;8010;53.986;12.106;2023-03-01T15:05:24;5.40;99.90
15819;DHT22;8010;53.986;12.106;2023-03-01T15:07:51;5.40;99.90
15819;DHT22;8010;53.986;12.106;2023-03-01T15:10:22;5.40;99.90
15819;DHT22;8010;53.986;12.106;2023-03-01T15:12:48;5.40;99.90
15819;DHT22;8010;53.986;12.106;2023-03-01T15:17:54;5.20;99.90
15819;DHT22;8010;53.986;12.106;2023-03-01T15:20:23;5.20;99.90
15819;DHT22;8010;53.986;12.106;2023-03-01T15:22:52;5.20;99.90
15819;DHT22;8010;53.986;12.106;2023-03-01T15:25:20;5.20;99.90
15819;DHT22;8010;53.986;12.106;2023-03-01T15:27:48;5.10;99.90
15819;DHT22;8010;53.986;12.106;2023-03-01T15:30:29;5.20;99.90
15819;DHT22;8010;53.986;12.106;2023-03-01T15:33:36;5.10;99.90
15819;DHT22;8010;53.986;12.106;2023-03-01T15:36:35;5.10;99.90
15819;DHT22;8010;53.986;12.106;2023-03-01T15:39:05;5.10;99.90
15819;DHT22;8010;53.986;12.106;2023-03-01T15:41:48;5.00;99.90
15819;DHT22;8010;53.986;12.106;2023-03-01T15:44:16;5.00;99.90
15819;DHT22;8010;53.986;12.106;2023-03-01T15:46:46;4.90;99.90
15819;DHT22;8010;53.986;12.106;2023-03-01T15:49:33;4.90;99.90
15819;DHT22;8010;53.986;12.106;2023-03-01T15:52:00;4.90;99.90
15819;DHT22;8010;53.986;12.106;2023-03-01T15:54:27;4.80;99.90
15819;DHT22;8010;53.986;12.106;2023-03-01T15:56:54;4.70;99.90
15819;DHT22;8010;53.986;12.106;2023-03-01T15:59:20;4.70;99.90
15819;DHT22;8010;53.986;12.106;2023-03-01T16:01:48;4.70;99.90
15819;DHT22;8010;53.986;12.106;2023-03-01T16:04:15;4.70;99.90
15819;DHT22;8010;53.986;12.106;2023-03-01T16:06:52;4.70;99.90
15819;DHT22;8010;53.986;12.106;2023-03-01T16:09:22;4.60;99.90
15819;DHT22;8010;53.986;12.106;2023-03-01T16:11:49;4.60;99.90
15819;DHT22;8010;53.986;12.106;2023-03-01T16:14:14;5.80;99.90
15819;DHT22;8010;53.986;12.106;2023-03-01T16:16:42;4.50;99.90
15819;DHT22;8010;53.986;12.106;2023-03-01T16:19:07;4.30;99.90
15819;DHT22;8010;53.986;12.106;2023-03-01T16:21:33;4.30;99.90
15819;DHT22;8010;53.986;12.106;2023-03-01T16:23:58;4.30;99.90
15819;DHT22;8010;53.986;12.106;2023-03-01T16:26:24;4.20;99.90
15819;DHT22;8010;53.986;12.106;2023-03-01T16:28:49;4.20;99.90
15819;DHT22;8010;53.986;12.106;2023-03-01T16:31:19;4.20;99.90
15819;DHT22;8010;53.986;12.106;2023-03-01T16:33:45;4.10;99.90
15819;DHT22;8010;53.986;12.106;2023-03-01T16:36:16;4.10;99.90
15819;DHT22;8010;53.986;12.106;2023-03-01T16:38:42;4.10;99.90
15819;DHT22;8010;53.986;12.106;2023-03-01T16:41:12;4.10;99.90
15819;DHT22;8010;53.986;12.106;2023-03-01T16:43:38;4.10;99.90
15819;DHT22;8010;53.986;12.106;2023-03-01T16:46:25;4.00;99.90
15819;DHT22;8010;53.986;12.106;2023-03-01T16:48:51;3.90;99.90
15819;DHT22;8010;53.986;12.106;2023-03-01T16:51:17;3.90;99.90
15819;DHT22;8010;53.986;12.106;2023-03-01T16:53:43;3.90;99.90
15819;DHT22;8010;53.986;12.106;2023-03-01T16:56:11;3.80;99.90
15819;DHT22;8010;53.986;12.106;2023-03-01T16:58:37;3.80;99.90
15819;DHT22;8010;53.986;12.106;2023-03-01T17:01:06;3.80;99.90
15819;DHT22;8010;53.986;12.106;2023-03-01T17:03:31;3.80;99.90
15819;DHT22;8010;53.986;12.106;2023-03-01T17:05:57;3.80;99.90
15819;DHT22;8010;53.986;12.106;2023-03-01T17:08:25;3.80;99.90
15819;DHT22;8010;53.986;12.106;2023-03-01T17:10:51;3.80;99.90
15819;DHT22;8010;53.986;12.106;2023-03-01T17:13:16;3.70;99.90
15819;DHT22;8010;53.986;12.106;2023-03-01T17:15:42;3.60;99.90
15819;DHT22;8010;53.986;12.106;2023-03-01T17:18:08;3.70;99.90
15819;DHT22;8010;53.986;12.106;2023-03-01T17:20:34;3.70;99.90
15819;DHT22;8010;53.986;12.106;2023-03-01T17:23:00;3.60;99.90
15819;DHT22;8010;53.986;12.106;2023-03-01T17:25:26;3.70;99.90
15819;DHT22;8010;53.986;12.106;2023-03-01T17:27:51;3.70;99.90
15819;DHT22;8010;53.986;12.106;2023-03-01T17:30:17;3.70;99.90
15819;DHT22;8010;53.986;12.106;2023-03-01T17:32:43;3.60;99.90
15819;DHT22;8010;53.986;12.106;2023-03-01T17:35:09;3.60;99.90
15819;DHT22;8010;53.986;12.106;2023-03-01T17:37:36;3.50;99.90
15819;DHT22;8010;53.986;12.106;2023-03-01T17:40:04;3.40;99.90